AFR122 SOCA-TFFF
Flight info
| Callsign | AFR122 |
|---|---|
| Flight time | N/A |
| Altitude | 38000 |
| Route | REKIM1A REKIM UN674 BUXEX UA555 BGI/N0399F240 A555 BORUS BORUS2X |
| Aircraft | B772/H-SDE2E3FGHIJ5LORVWXY/LB1D1 |
Departure
| Time | 2026-04-15 18:54 |
|---|---|
| Airport | Cayenne – Félix Eboué Airport (SOCA) |
Arrival
| Time | N/A |
|---|---|
| Airport | Martinique Aimé Césaire International Airport (TFFF) |
| Time | Latitude | Longitude | Altitude | Speed | Heading |
|---|---|---|---|---|---|
| 2026-04-15 18:32 | 4.82091 | -52.36478 | 33 ft | 0 kts | 335° |
| 2026-04-15 18:45 | 4.82080 | -52.36473 | 33 ft | 4 kts | 335° |
| 2026-04-15 18:45 | 4.82056 | -52.36462 | 30 ft | 4 kts | 335° |
| 2026-04-15 18:45 | 4.82036 | -52.36450 | 30 ft | 4 kts | 305° |
| 2026-04-15 18:46 | 4.82032 | -52.36429 | 32 ft | 4 kts | 247° |
| 2026-04-15 18:46 | 4.82041 | -52.36410 | 31 ft | 1 kts | 245° |
| 2026-04-15 18:46 | 4.82042 | -52.36406 | 31 ft | 0 kts | 245° |
| 2026-04-15 18:49 | 4.82042 | -52.36407 | 31 ft | 0 kts | 245° |
| 2026-04-15 18:49 | 4.82033 | -52.36428 | 32 ft | 5 kts | 245° |
| 2026-04-15 18:49 | 4.82016 | -52.36462 | 31 ft | 5 kts | 245° |
| 2026-04-15 18:49 | 4.82000 | -52.36497 | 33 ft | 6 kts | 241° |
| 2026-04-15 18:50 | 4.81967 | -52.36552 | 33 ft | 16 kts | 239° |
| 2026-04-15 18:50 | 4.81902 | -52.36687 | 33 ft | 25 kts | 245° |
| 2026-04-15 18:50 | 4.81850 | -52.36797 | 32 ft | 16 kts | 245° |
| 2026-04-15 18:50 | 4.81802 | -52.36900 | 33 ft | 18 kts | 245° |
| 2026-04-15 18:51 | 4.81736 | -52.37043 | 33 ft | 28 kts | 245° |
| 2026-04-15 18:51 | 4.81643 | -52.37242 | 31 ft | 35 kts | 245° |
| 2026-04-15 18:51 | 4.81552 | -52.37397 | 31 ft | 15 kts | 200° |
| 2026-04-15 18:51 | 4.81464 | -52.37413 | 31 ft | 10 kts | 190° |
| 2026-04-15 18:52 | 4.81400 | -52.37403 | 31 ft | 2 kts | 114° |
| 2026-04-15 18:52 | 4.81411 | -52.37382 | 31 ft | 6 kts | 57° |
| 2026-04-15 18:52 | 4.81438 | -52.37341 | 32 ft | 0 kts | 62° |
| 2026-04-15 18:52 | 4.81457 | -52.37303 | 32 ft | 26 kts | 64° |
| 2026-04-15 18:53 | 4.81616 | -52.36969 | 32 ft | 78 kts | 67° |
| 2026-04-15 18:53 | 4.81901 | -52.36330 | 33 ft | 122 kts | 66° |
| 2026-04-15 18:53 | 4.82251 | -52.35432 | 53 ft | 152 kts | 71° |
| 2026-04-15 18:53 | 4.82684 | -52.34402 | 282 ft | 169 kts | 71° |
| 2026-04-15 18:54 | 4.83111 | -52.33211 | 649 ft | 193 kts | 73° |
| 2026-04-15 18:54 | 4.83526 | -52.31940 | 1269 ft | 190 kts | 73° |
| 2026-04-15 18:54 | 4.83875 | -52.30644 | 1669 ft | 195 kts | 79° |
| 2026-04-15 18:54 | 4.84070 | -52.29309 | 2136 ft | 196 kts | 84° |
| 2026-04-15 18:55 | 4.84255 | -52.27975 | 2615 ft | 195 kts | 78° |
| 2026-04-15 18:55 | 4.84624 | -52.26697 | 3228 ft | 199 kts | 73° |
| 2026-04-15 18:55 | 4.85067 | -52.25246 | 3527 ft | 237 kts | 74° |
| 2026-04-15 18:55 | 4.85535 | -52.23603 | 4303 ft | 249 kts | 75° |
| 2026-04-15 18:56 | 4.86002 | -52.21893 | 5258 ft | 257 kts | 75° |
| 2026-04-15 18:56 | 4.86748 | -52.20262 | 6138 ft | 264 kts | 52° |
| 2026-04-15 18:56 | 4.88214 | -52.19131 | 7072 ft | 272 kts | 27° |
| 2026-04-15 18:56 | 4.90067 | -52.18667 | 8014 ft | 281 kts | 4° |
| 2026-04-15 18:57 | 4.92004 | -52.19005 | 9018 ft | 288 kts | 339° |
| 2026-04-15 18:57 | 4.93854 | -52.19819 | 9378 ft | 280 kts | 346° |
| 2026-04-15 18:57 | 4.95792 | -52.20007 | 9939 ft | 288 kts | 6° |
| 2026-04-15 18:57 | 4.97828 | -52.19883 | 9947 ft | 300 kts | 5° |
| 2026-04-15 18:58 | 4.99917 | -52.19821 | 9964 ft | 299 kts | 3° |
| 2026-04-15 18:58 | 5.01985 | -52.19822 | 9958 ft | 295 kts | 2° |
| 2026-04-15 18:58 | 5.04034 | -52.19819 | 9958 ft | 294 kts | 3° |
| 2026-04-15 18:58 | 5.06136 | -52.19848 | 10138 ft | 315 kts | 1° |
| 2026-04-15 18:59 | 5.08419 | -52.19927 | 10522 ft | 337 kts | 0° |
| 2026-04-15 18:59 | 5.10795 | -52.20053 | 11294 ft | 345 kts | 359° |
| 2026-04-15 18:59 | 5.13209 | -52.20211 | 12182 ft | 350 kts | 359° |
| 2026-04-15 18:59 | 5.15650 | -52.20389 | 13128 ft | 354 kts | 359° |
| 2026-04-15 19:00 | 5.18118 | -52.20580 | 14035 ft | 358 kts | 358° |
| 2026-04-15 19:00 | 5.20617 | -52.20779 | 14848 ft | 362 kts | 358° |
| 2026-04-15 19:00 | 5.23147 | -52.20982 | 15657 ft | 367 kts | 357° |
| 2026-04-15 19:00 | 5.25723 | -52.21190 | 16475 ft | 372 kts | 358° |
| 2026-04-15 19:01 | 5.28321 | -52.21400 | 17273 ft | 378 kts | 356° |
| 2026-04-15 19:01 | 5.30929 | -52.21611 | 18026 ft | 383 kts | 356° |
| 2026-04-15 19:01 | 5.33606 | -52.21828 | 18732 ft | 388 kts | 356° |
| 2026-04-15 19:01 | 5.36312 | -52.22046 | 19363 ft | 394 kts | 356° |
| 2026-04-15 19:02 | 5.39063 | -52.22268 | 19970 ft | 400 kts | 356° |
| 2026-04-15 19:02 | 5.41857 | -52.22493 | 20538 ft | 406 kts | 356° |
| 2026-04-15 19:02 | 5.44664 | -52.22839 | 21072 ft | 407 kts | 345° |
| 2026-04-15 19:02 | 5.47253 | -52.24041 | 21504 ft | 416 kts | 324° |
| 2026-04-15 19:03 | 5.49343 | -52.26046 | 22115 ft | 416 kts | 307° |
| 2026-04-15 19:03 | 5.51077 | -52.28401 | 22551 ft | 423 kts | 304° |
| 2026-04-15 19:03 | 5.52806 | -52.30825 | 23044 ft | 430 kts | 304° |
| 2026-04-15 19:03 | 5.54548 | -52.33286 | 23618 ft | 434 kts | 304° |
| 2026-04-15 19:04 | 5.56306 | -52.35761 | 24148 ft | 436 kts | 304° |
| 2026-04-15 19:04 | 5.58057 | -52.38213 | 24695 ft | 437 kts | 304° |
| 2026-04-15 19:04 | 5.59839 | -52.40695 | 25338 ft | 436 kts | 304° |
| 2026-04-15 19:04 | 5.61633 | -52.43177 | 25814 ft | 441 kts | 304° |
| 2026-04-15 19:05 | 5.63439 | -52.45673 | 26357 ft | 443 kts | 304° |
| 2026-04-15 19:05 | 5.65270 | -52.48191 | 26744 ft | 450 kts | 304° |
| 2026-04-15 19:05 | 5.67122 | -52.50747 | 27263 ft | 453 kts | 304° |
| 2026-04-15 19:05 | 5.68965 | -52.53284 | 27696 ft | 458 kts | 304° |
| 2026-04-15 19:06 | 5.70844 | -52.55877 | 28304 ft | 458 kts | 304° |
| 2026-04-15 19:06 | 5.72727 | -52.58471 | 28843 ft | 461 kts | 304° |
| 2026-04-15 19:06 | 5.74632 | -52.61099 | 29302 ft | 465 kts | 304° |
| 2026-04-15 19:06 | 5.76548 | -52.63741 | 29830 ft | 468 kts | 304° |
| 2026-04-15 19:07 | 5.78476 | -52.66399 | 30285 ft | 471 kts | 304° |
| 2026-04-15 19:07 | 5.80410 | -52.69065 | 30719 ft | 474 kts | 304° |
| 2026-04-15 19:07 | 5.82355 | -52.71748 | 31147 ft | 477 kts | 304° |
| 2026-04-15 19:07 | 5.84314 | -52.74451 | 31557 ft | 480 kts | 304° |
| 2026-04-15 19:08 | 5.86258 | -52.77133 | 31958 ft | 482 kts | 304° |
| 2026-04-15 19:08 | 5.88245 | -52.79877 | 32344 ft | 485 kts | 303° |
| 2026-04-15 19:08 | 5.90236 | -52.82624 | 32722 ft | 488 kts | 303° |
| 2026-04-15 19:08 | 5.92242 | -52.85394 | 33107 ft | 491 kts | 304° |
| 2026-04-15 19:09 | 5.94252 | -52.88169 | 33508 ft | 492 kts | 303° |
| 2026-04-15 19:09 | 5.96267 | -52.90950 | 33989 ft | 491 kts | 303° |
| 2026-04-15 19:09 | 5.98273 | -52.93718 | 34520 ft | 488 kts | 303° |
| 2026-04-15 19:09 | 6.00260 | -52.96462 | 35050 ft | 484 kts | 303° |
| 2026-04-15 19:10 | 6.02236 | -52.99190 | 35601 ft | 480 kts | 303° |
| 2026-04-15 19:10 | 6.04172 | -53.01864 | 36122 ft | 478 kts | 303° |
| 2026-04-15 19:10 | 6.06119 | -53.04554 | 36605 ft | 476 kts | 303° |
| 2026-04-15 19:10 | 6.08066 | -53.07245 | 37092 ft | 473 kts | 303° |
| 2026-04-15 19:11 | 6.10000 | -53.09919 | 37648 ft | 469 kts | 303° |
| 2026-04-15 19:11 | 6.11916 | -53.12568 | 37974 ft | 470 kts | 303° |
| 2026-04-15 19:11 | 6.13854 | -53.15249 | 37951 ft | 476 kts | 303° |
| 2026-04-15 19:12 | 6.17728 | -53.20608 | 37937 ft | 469 kts | 303° |
| 2026-04-15 19:12 | 6.21529 | -53.25863 | 37953 ft | 468 kts | 303° |
| 2026-04-15 19:13 | 6.25358 | -53.31162 | 37956 ft | 469 kts | 303° |
| 2026-04-15 19:13 | 6.29193 | -53.36473 | 37954 ft | 470 kts | 303° |
| 2026-04-15 19:14 | 6.33046 | -53.41807 | 37954 ft | 471 kts | 303° |
| 2026-04-15 19:14 | 6.36894 | -53.47135 | 37954 ft | 471 kts | 303° |
| 2026-04-15 19:15 | 6.40723 | -53.52440 | 37951 ft | 471 kts | 303° |
| 2026-04-15 19:15 | 6.44576 | -53.57778 | 37952 ft | 469 kts | 303° |
| 2026-04-15 19:16 | 6.48400 | -53.63077 | 37946 ft | 467 kts | 303° |
| 2026-04-15 19:16 | 6.52204 | -53.68353 | 37949 ft | 465 kts | 303° |
| 2026-04-15 19:17 | 6.56001 | -53.73619 | 37955 ft | 464 kts | 303° |
| 2026-04-15 19:17 | 6.59792 | -53.78880 | 37954 ft | 465 kts | 303° |
| 2026-04-15 19:18 | 6.63570 | -53.84124 | 37954 ft | 465 kts | 303° |
| 2026-04-15 19:18 | 6.69278 | -53.92049 | 37954 ft | 466 kts | 303° |
| 2026-04-15 19:19 | 6.73087 | -53.97333 | 37954 ft | 467 kts | 304° |
| 2026-04-15 19:19 | 6.77430 | -54.02162 | 37955 ft | 471 kts | 316° |
| 2026-04-15 19:20 | 6.82459 | -54.06413 | 37957 ft | 472 kts | 317° |
| 2026-04-15 19:20 | 6.87515 | -54.10625 | 37951 ft | 472 kts | 317° |
| 2026-04-15 19:21 | 6.92558 | -54.14864 | 37954 ft | 471 kts | 317° |
| 2026-04-15 19:21 | 6.97575 | -54.19110 | 37952 ft | 471 kts | 317° |
| 2026-04-15 19:22 | 7.02554 | -54.23332 | 37955 ft | 471 kts | 317° |
| 2026-04-15 19:22 | 7.07564 | -54.27583 | 37953 ft | 471 kts | 317° |
| 2026-04-15 19:23 | 7.12570 | -54.31829 | 37961 ft | 470 kts | 317° |
| 2026-04-15 19:23 | 7.17571 | -54.36071 | 37951 ft | 469 kts | 317° |
| 2026-04-15 19:24 | 7.20065 | -54.38188 | 37847 ft | 470 kts | 317° |
| 2026-04-15 19:24 | 7.22573 | -54.40317 | 37935 ft | 468 kts | 316° |
| 2026-04-15 19:24 | 7.27571 | -54.44559 | 37958 ft | 471 kts | 316° |
| 2026-04-15 19:25 | 7.32572 | -54.48807 | 37958 ft | 474 kts | 317° |
| 2026-04-15 19:25 | 7.37641 | -54.53115 | 37950 ft | 477 kts | 317° |
| 2026-04-15 19:26 | 7.42732 | -54.57440 | 37964 ft | 480 kts | 317° |
| 2026-04-15 19:26 | 7.47864 | -54.61801 | 37957 ft | 483 kts | 317° |
| 2026-04-15 19:27 | 7.52981 | -54.66152 | 37963 ft | 486 kts | 317° |
| 2026-04-15 19:27 | 7.58167 | -54.70563 | 37965 ft | 489 kts | 317° |
| 2026-04-15 19:28 | 7.63386 | -54.75003 | 37964 ft | 491 kts | 317° |
| 2026-04-15 19:28 | 7.68621 | -54.79458 | 37960 ft | 493 kts | 317° |
| 2026-04-15 19:29 | 7.72985 | -54.83173 | 37963 ft | 494 kts | 317° |
| 2026-04-15 19:29 | 7.78233 | -54.87642 | 37955 ft | 490 kts | 316° |
| 2026-04-15 19:30 | 7.84201 | -54.92721 | 37951 ft | 479 kts | 316° |
| 2026-04-15 19:30 | 7.88459 | -54.96351 | 37958 ft | 478 kts | 316° |
| 2026-04-15 19:31 | 7.93539 | -55.00684 | 37954 ft | 478 kts | 316° |
| 2026-04-15 19:31 | 7.98615 | -55.05014 | 37958 ft | 478 kts | 316° |
| 2026-04-15 19:32 | 8.03670 | -55.09327 | 37957 ft | 478 kts | 316° |
| 2026-04-15 19:32 | 8.08757 | -55.13668 | 37957 ft | 479 kts | 316° |
| 2026-04-15 19:33 | 8.13851 | -55.18015 | 37965 ft | 480 kts | 316° |
| 2026-04-15 19:33 | 8.18956 | -55.22375 | 37960 ft | 480 kts | 316° |
| 2026-04-15 19:34 | 8.24037 | -55.26715 | 37956 ft | 481 kts | 316° |
| 2026-04-15 19:34 | 8.29146 | -55.31081 | 37956 ft | 481 kts | 316° |
| 2026-04-15 19:35 | 8.34266 | -55.35457 | 37959 ft | 481 kts | 316° |
| 2026-04-15 19:35 | 8.39374 | -55.39825 | 37959 ft | 481 kts | 316° |
| 2026-04-15 19:36 | 8.44456 | -55.44173 | 37958 ft | 480 kts | 316° |
| 2026-04-15 19:36 | 8.49560 | -55.48540 | 37955 ft | 480 kts | 316° |
| 2026-04-15 19:37 | 8.54655 | -55.52901 | 37958 ft | 479 kts | 316° |
| 2026-04-15 19:37 | 8.59748 | -55.57263 | 37958 ft | 479 kts | 316° |
| 2026-04-15 19:38 | 8.64806 | -55.61595 | 37961 ft | 478 kts | 316° |
| 2026-04-15 19:38 | 8.69875 | -55.65940 | 37958 ft | 478 kts | 316° |
| 2026-04-15 19:39 | 8.74955 | -55.70295 | 37961 ft | 477 kts | 316° |
| 2026-04-15 19:39 | 8.79993 | -55.74616 | 37971 ft | 476 kts | 316° |
| 2026-04-15 19:40 | 8.85048 | -55.78953 | 37954 ft | 476 kts | 316° |
| 2026-04-15 19:40 | 8.90090 | -55.83280 | 37956 ft | 474 kts | 316° |
| 2026-04-15 19:41 | 8.95112 | -55.87592 | 37958 ft | 472 kts | 316° |
| 2026-04-15 19:41 | 9.00112 | -55.91888 | 37960 ft | 471 kts | 316° |
| 2026-04-15 19:42 | 9.05071 | -55.96150 | 37961 ft | 469 kts | 316° |
| 2026-04-15 19:42 | 9.10051 | -56.00430 | 37961 ft | 469 kts | 316° |
| 2026-04-15 19:43 | 9.15016 | -56.04699 | 37965 ft | 468 kts | 316° |
| 2026-04-15 19:43 | 9.19986 | -56.08977 | 37964 ft | 468 kts | 316° |
| 2026-04-15 19:44 | 9.24954 | -56.13255 | 37966 ft | 469 kts | 316° |
| 2026-04-15 19:44 | 9.29922 | -56.17535 | 37963 ft | 469 kts | 316° |
| 2026-04-15 19:45 | 9.34894 | -56.21820 | 37963 ft | 470 kts | 316° |
| 2026-04-15 19:45 | 9.39850 | -56.26092 | 37963 ft | 470 kts | 316° |
| 2026-04-15 19:46 | 9.44848 | -56.30403 | 37977 ft | 471 kts | 316° |
| 2026-04-15 19:46 | 9.49838 | -56.34708 | 37961 ft | 471 kts | 316° |
| 2026-04-15 19:47 | 9.54785 | -56.38978 | 37959 ft | 470 kts | 316° |
| 2026-04-15 19:47 | 9.59762 | -56.43275 | 37959 ft | 469 kts | 316° |
| 2026-04-15 19:48 | 9.64717 | -56.47555 | 37959 ft | 467 kts | 316° |
| 2026-04-15 19:48 | 9.69644 | -56.51813 | 37961 ft | 466 kts | 316° |
| 2026-04-15 19:49 | 9.74584 | -56.56084 | 37953 ft | 466 kts | 316° |
| 2026-04-15 19:49 | 9.79508 | -56.60343 | 37971 ft | 465 kts | 315° |
| 2026-04-15 19:50 | 9.84430 | -56.64601 | 37954 ft | 464 kts | 315° |
| 2026-04-15 19:50 | 9.89347 | -56.68857 | 37964 ft | 464 kts | 315° |
| 2026-04-15 19:51 | 9.94231 | -56.73087 | 37962 ft | 464 kts | 315° |
| 2026-04-15 19:51 | 9.99150 | -56.77348 | 37956 ft | 464 kts | 315° |
| 2026-04-15 19:52 | 10.04059 | -56.81603 | 37968 ft | 464 kts | 315° |
| 2026-04-15 19:52 | 10.08975 | -56.85865 | 37966 ft | 464 kts | 315° |
| 2026-04-15 19:53 | 10.13862 | -56.90104 | 37972 ft | 464 kts | 315° |
| 2026-04-15 19:53 | 10.18778 | -56.94370 | 37974 ft | 465 kts | 315° |
| 2026-04-15 19:54 | 10.23697 | -56.98640 | 37962 ft | 465 kts | 315° |
| 2026-04-15 19:54 | 10.28621 | -57.02916 | 37960 ft | 465 kts | 315° |
| 2026-04-15 19:55 | 10.33539 | -57.07189 | 37967 ft | 465 kts | 315° |
| 2026-04-15 19:55 | 10.38432 | -57.11441 | 37962 ft | 465 kts | 315° |
| 2026-04-15 19:56 | 10.43342 | -57.15712 | 37965 ft | 464 kts | 315° |
| 2026-04-15 19:56 | 10.48258 | -57.19988 | 37974 ft | 464 kts | 315° |
| 2026-04-15 19:57 | 10.53167 | -57.24260 | 37964 ft | 464 kts | 315° |
| 2026-04-15 19:57 | 10.58050 | -57.28512 | 37964 ft | 464 kts | 315° |
| 2026-04-15 19:58 | 10.62952 | -57.32782 | 37964 ft | 463 kts | 315° |
| 2026-04-15 19:58 | 10.67850 | -57.37050 | 37964 ft | 463 kts | 315° |
| 2026-04-15 19:59 | 10.72714 | -57.41291 | 37955 ft | 463 kts | 315° |
| 2026-04-15 19:59 | 10.77605 | -57.45557 | 37953 ft | 463 kts | 315° |
| 2026-04-15 20:00 | 10.82495 | -57.49824 | 37978 ft | 463 kts | 314° |
| 2026-04-15 20:00 | 10.87381 | -57.54090 | 37952 ft | 463 kts | 314° |
| 2026-04-15 20:01 | 10.92265 | -57.58355 | 37976 ft | 463 kts | 314° |
| 2026-04-15 20:01 | 10.97152 | -57.62626 | 37975 ft | 462 kts | 314° |
| 2026-04-15 20:02 | 11.02010 | -57.66872 | 37967 ft | 463 kts | 314° |
| 2026-04-15 20:02 | 11.06892 | -57.71142 | 37955 ft | 463 kts | 314° |
| 2026-04-15 20:03 | 11.11780 | -57.75419 | 37977 ft | 462 kts | 314° |
| 2026-04-15 20:03 | 11.16665 | -57.79695 | 37976 ft | 462 kts | 314° |
| 2026-04-15 20:04 | 11.21524 | -57.83951 | 37964 ft | 463 kts | 314° |
| 2026-04-15 20:04 | 11.26404 | -57.88227 | 37962 ft | 463 kts | 314° |
| 2026-04-15 20:05 | 11.31286 | -57.92507 | 37963 ft | 463 kts | 314° |
| 2026-04-15 20:05 | 11.36178 | -57.96797 | 37969 ft | 464 kts | 314° |
| 2026-04-15 20:06 | 11.41075 | -58.01093 | 37969 ft | 465 kts | 314° |
| 2026-04-15 20:06 | 11.45981 | -58.05401 | 37967 ft | 466 kts | 314° |
| 2026-04-15 20:07 | 11.50900 | -58.09721 | 37978 ft | 467 kts | 314° |
| 2026-04-15 20:07 | 11.55821 | -58.14044 | 37971 ft | 467 kts | 314° |
| 2026-04-15 20:08 | 11.60722 | -58.18354 | 37965 ft | 468 kts | 314° |
| 2026-04-15 20:08 | 11.65693 | -58.22725 | 37968 ft | 469 kts | 314° |
| 2026-04-15 20:09 | 11.70607 | -58.27048 | 37973 ft | 468 kts | 314° |
| 2026-04-15 20:09 | 11.75536 | -58.31388 | 37972 ft | 467 kts | 314° |
| 2026-04-15 20:10 | 11.80453 | -58.35718 | 37973 ft | 467 kts | 314° |
| 2026-04-15 20:10 | 11.85365 | -58.40047 | 37973 ft | 466 kts | 314° |
| 2026-04-15 20:11 | 11.90237 | -58.44342 | 37973 ft | 464 kts | 313° |
| 2026-04-15 20:11 | 11.95114 | -58.48643 | 37978 ft | 461 kts | 313° |
| 2026-04-15 20:12 | 11.99961 | -58.52920 | 37968 ft | 459 kts | 313° |
| 2026-04-15 20:12 | 12.04787 | -58.57181 | 37971 ft | 457 kts | 313° |
| 2026-04-15 20:13 | 12.09599 | -58.61433 | 37977 ft | 456 kts | 313° |
| 2026-04-15 20:13 | 12.14370 | -58.65652 | 37981 ft | 456 kts | 313° |
| 2026-04-15 20:14 | 12.19166 | -58.69894 | 37982 ft | 456 kts | 313° |
| 2026-04-15 20:14 | 12.23973 | -58.74147 | 37993 ft | 457 kts | 314° |
| 2026-04-15 20:15 | 12.28780 | -58.78401 | 37974 ft | 457 kts | 314° |
| 2026-04-15 20:15 | 12.32773 | -58.81938 | 37979 ft | 457 kts | 314° |
| 2026-04-15 20:16 | 12.37588 | -58.86204 | 37981 ft | 457 kts | 314° |
| 2026-04-15 20:16 | 12.42399 | -58.90468 | 37976 ft | 457 kts | 314° |
| 2026-04-15 20:17 | 12.47206 | -58.94731 | 37975 ft | 457 kts | 314° |
| 2026-04-15 20:17 | 12.52014 | -58.98998 | 37979 ft | 457 kts | 314° |
| 2026-04-15 20:18 | 12.56787 | -59.03236 | 37985 ft | 457 kts | 314° |
| 2026-04-15 20:18 | 12.61596 | -59.07507 | 37977 ft | 457 kts | 314° |
| 2026-04-15 20:19 | 12.66397 | -59.11774 | 37978 ft | 457 kts | 314° |
| 2026-04-15 20:19 | 12.71172 | -59.16019 | 37981 ft | 456 kts | 314° |
| 2026-04-15 20:20 | 12.75962 | -59.20282 | 37980 ft | 456 kts | 314° |
| 2026-04-15 20:20 | 12.80750 | -59.24544 | 37981 ft | 456 kts | 314° |
| 2026-04-15 20:21 | 12.85542 | -59.28811 | 37983 ft | 456 kts | 314° |
| 2026-04-15 20:21 | 12.90338 | -59.33085 | 37985 ft | 456 kts | 314° |
| 2026-04-15 20:22 | 12.95126 | -59.37354 | 37998 ft | 455 kts | 314° |
| 2026-04-15 20:22 | 12.99885 | -59.41599 | 37991 ft | 455 kts | 314° |
| 2026-04-15 20:23 | 13.04645 | -59.45849 | 37993 ft | 453 kts | 314° |
| 2026-04-15 20:23 | 13.09326 | -59.50174 | 37993 ft | 450 kts | 311° |
| 2026-04-15 20:24 | 13.16007 | -59.56916 | 37994 ft | 449 kts | 310° |
| 2026-04-15 20:25 | 13.20424 | -59.61389 | 37990 ft | 449 kts | 310° |
| 2026-04-15 20:25 | 13.22660 | -59.63648 | 37623 ft | 456 kts | 310° |
| 2026-04-15 20:25 | 13.24931 | -59.65942 | 37090 ft | 456 kts | 310° |
| 2026-04-15 20:25 | 13.27193 | -59.68219 | 36447 ft | 455 kts | 310° |
| 2026-04-15 20:26 | 13.29453 | -59.70495 | 35796 ft | 454 kts | 310° |
| 2026-04-15 20:26 | 13.31692 | -59.72750 | 35064 ft | 456 kts | 310° |
| 2026-04-15 20:26 | 13.33947 | -59.75023 | 34515 ft | 453 kts | 310° |
| 2026-04-15 20:26 | 13.36221 | -59.77314 | 33991 ft | 451 kts | 310° |
| 2026-04-15 20:27 | 13.38457 | -59.79569 | 33391 ft | 449 kts | 310° |
| 2026-04-15 20:27 | 13.40674 | -59.81805 | 32866 ft | 445 kts | 310° |
| 2026-04-15 20:27 | 13.42845 | -59.83996 | 32354 ft | 442 kts | 310° |
| 2026-04-15 20:27 | 13.45038 | -59.86209 | 31853 ft | 439 kts | 310° |
| 2026-04-15 20:28 | 13.47208 | -59.88401 | 31356 ft | 436 kts | 310° |
| 2026-04-15 20:28 | 13.49360 | -59.90575 | 30870 ft | 433 kts | 310° |
| 2026-04-15 20:28 | 13.51503 | -59.92742 | 30378 ft | 431 kts | 310° |
| 2026-04-15 20:28 | 13.53634 | -59.94896 | 29846 ft | 428 kts | 310° |
| 2026-04-15 20:29 | 13.55754 | -59.97041 | 29274 ft | 426 kts | 310° |
| 2026-04-15 20:29 | 13.57862 | -59.99173 | 28733 ft | 423 kts | 310° |
| 2026-04-15 20:29 | 13.59926 | -60.01261 | 28217 ft | 420 kts | 310° |
| 2026-04-15 20:29 | 13.62007 | -60.03366 | 27704 ft | 417 kts | 310° |
| 2026-04-15 20:30 | 13.64067 | -60.05451 | 27222 ft | 414 kts | 310° |
| 2026-04-15 20:30 | 13.66116 | -60.07526 | 26710 ft | 412 kts | 310° |
| 2026-04-15 20:30 | 13.68148 | -60.09584 | 26217 ft | 409 kts | 310° |
| 2026-04-15 20:30 | 13.70179 | -60.11642 | 25719 ft | 407 kts | 310° |
| 2026-04-15 20:31 | 13.72190 | -60.13680 | 25222 ft | 405 kts | 310° |
| 2026-04-15 20:31 | 13.74166 | -60.15683 | 24745 ft | 403 kts | 310° |
| 2026-04-15 20:31 | 13.76156 | -60.17701 | 24273 ft | 401 kts | 311° |
| 2026-04-15 20:31 | 13.78145 | -60.19719 | 23797 ft | 400 kts | 311° |
| 2026-04-15 20:32 | 13.80125 | -60.21727 | 23293 ft | 399 kts | 311° |
| 2026-04-15 20:32 | 13.82095 | -60.23726 | 22762 ft | 396 kts | 311° |
| 2026-04-15 20:32 | 13.84053 | -60.25712 | 22293 ft | 394 kts | 311° |
| 2026-04-15 20:32 | 13.85997 | -60.27686 | 21847 ft | 391 kts | 311° |
| 2026-04-15 20:33 | 13.87928 | -60.29646 | 21382 ft | 389 kts | 311° |
| 2026-04-15 20:33 | 13.89850 | -60.31598 | 20953 ft | 387 kts | 311° |
| 2026-04-15 20:33 | 13.91767 | -60.33546 | 20523 ft | 386 kts | 311° |
| 2026-04-15 20:33 | 13.93672 | -60.35483 | 20084 ft | 385 kts | 311° |
| 2026-04-15 20:34 | 13.95575 | -60.37418 | 19645 ft | 384 kts | 311° |
| 2026-04-15 20:34 | 13.97471 | -60.39346 | 19223 ft | 383 kts | 311° |
| 2026-04-15 20:34 | 13.99367 | -60.41274 | 18793 ft | 383 kts | 311° |
| 2026-04-15 20:34 | 14.01267 | -60.43207 | 18366 ft | 383 kts | 312° |
| 2026-04-15 20:35 | 14.03144 | -60.45152 | 17907 ft | 382 kts | 309° |
| 2026-04-15 20:35 | 14.04806 | -60.47274 | 17444 ft | 379 kts | 302° |
| 2026-04-15 20:35 | 14.06222 | -60.49558 | 17010 ft | 375 kts | 296° |
| 2026-04-15 20:35 | 14.07446 | -60.51887 | 16595 ft | 374 kts | 295° |
| 2026-04-15 20:36 | 14.08677 | -60.54242 | 16178 ft | 374 kts | 295° |
| 2026-04-15 20:36 | 14.09935 | -60.56651 | 15776 ft | 391 kts | 295° |
| 2026-04-15 20:36 | 14.11239 | -60.59146 | 15324 ft | 400 kts | 296° |
| 2026-04-15 20:36 | 14.12574 | -60.61691 | 14866 ft | 407 kts | 296° |
| 2026-04-15 20:37 | 14.13932 | -60.64274 | 14547 ft | 411 kts | 296° |
| 2026-04-15 20:37 | 14.15279 | -60.66825 | 14015 ft | 395 kts | 296° |
| 2026-04-15 20:37 | 14.16568 | -60.69258 | 13451 ft | 377 kts | 295° |
| 2026-04-15 20:37 | 14.17803 | -60.71587 | 13005 ft | 364 kts | 295° |
| 2026-04-15 20:38 | 14.19055 | -60.73956 | 12575 ft | 351 kts | 295° |
| 2026-04-15 20:38 | 14.20205 | -60.76137 | 12188 ft | 341 kts | 295° |
| 2026-04-15 20:38 | 14.21322 | -60.78261 | 12004 ft | 342 kts | 295° |
| 2026-04-15 20:38 | 14.22454 | -60.80414 | 12000 ft | 342 kts | 295° |
| 2026-04-15 20:39 | 14.23590 | -60.82561 | 11960 ft | 340 kts | 297° |
| 2026-04-15 20:39 | 14.24716 | -60.84698 | 11306 ft | 336 kts | 296° |
| 2026-04-15 20:39 | 14.25824 | -60.86816 | 10506 ft | 332 kts | 296° |
| 2026-04-15 20:39 | 14.26861 | -60.88795 | 10489 ft | 302 kts | 297° |
| 2026-04-15 20:40 | 14.27846 | -60.90663 | 10347 ft | 292 kts | 296° |
| 2026-04-15 20:40 | 14.28806 | -60.92493 | 10259 ft | 289 kts | 296° |
| 2026-04-15 20:40 | 14.29763 | -60.94307 | 10114 ft | 293 kts | 296° |
| 2026-04-15 20:40 | 14.30739 | -60.96171 | 9995 ft | 299 kts | 296° |
| 2026-04-15 20:41 | 14.31739 | -60.98082 | 9660 ft | 305 kts | 296° |
| 2026-04-15 20:41 | 14.32745 | -60.99998 | 9314 ft | 302 kts | 297° |
| 2026-04-15 20:41 | 14.33741 | -61.01891 | 8989 ft | 299 kts | 297° |
| 2026-04-15 20:41 | 14.34728 | -61.03770 | 8675 ft | 296 kts | 297° |
| 2026-04-15 20:42 | 14.35704 | -61.05626 | 8360 ft | 292 kts | 297° |
| 2026-04-15 20:42 | 14.36664 | -61.07458 | 8142 ft | 284 kts | 297° |
| 2026-04-15 20:42 | 14.37568 | -61.09181 | 7900 ft | 264 kts | 298° |
| 2026-04-15 20:42 | 14.38414 | -61.10791 | 7507 ft | 252 kts | 298° |
| 2026-04-15 20:43 | 14.39233 | -61.12351 | 7151 ft | 243 kts | 298° |
| 2026-04-15 20:43 | 14.40040 | -61.13891 | 6902 ft | 245 kts | 298° |
| 2026-04-15 20:43 | 14.40867 | -61.15468 | 6690 ft | 255 kts | 298° |
| 2026-04-15 20:43 | 14.41719 | -61.17097 | 6370 ft | 258 kts | 298° |
| 2026-04-15 20:44 | 14.42578 | -61.18736 | 5925 ft | 262 kts | 298° |
| 2026-04-15 20:44 | 14.43449 | -61.20400 | 5496 ft | 265 kts | 298° |
| 2026-04-15 20:44 | 14.44329 | -61.22079 | 5075 ft | 268 kts | 299° |
| 2026-04-15 20:44 | 14.45376 | -61.23653 | 4539 ft | 266 kts | 321° |
| 2026-04-15 20:45 | 14.46983 | -61.24540 | 4052 ft | 260 kts | 344° |
| 2026-04-15 20:45 | 14.48677 | -61.25188 | 3574 ft | 266 kts | 342° |
| 2026-04-15 20:45 | 14.50413 | -61.25888 | 3126 ft | 267 kts | 345° |
| 2026-04-15 20:45 | 14.52172 | -61.26106 | 2841 ft | 244 kts | 15° |
| 2026-04-15 20:46 | 14.53648 | -61.25422 | 2448 ft | 228 kts | 44° |
| 2026-04-15 20:46 | 14.54661 | -61.24234 | 2087 ft | 213 kts | 58° |
| 2026-04-15 20:46 | 14.55300 | -61.22927 | 1778 ft | 196 kts | 72° |
| 2026-04-15 20:46 | 14.55664 | -61.21711 | 1892 ft | 163 kts | 77° |
| 2026-04-15 20:47 | 14.55869 | -61.20612 | 1831 ft | 150 kts | 84° |
| 2026-04-15 20:47 | 14.55982 | -61.19522 | 1891 ft | 157 kts | 84° |
| 2026-04-15 20:47 | 14.56113 | -61.18405 | 1936 ft | 158 kts | 83° |
| 2026-04-15 20:47 | 14.56245 | -61.17274 | 2019 ft | 162 kts | 86° |
| 2026-04-15 20:48 | 14.56411 | -61.16118 | 2061 ft | 165 kts | 81° |
| 2026-04-15 20:48 | 14.56603 | -61.14920 | 2023 ft | 171 kts | 81° |
| 2026-04-15 20:48 | 14.56748 | -61.14147 | 1938 ft | 170 kts | 80° |
| 2026-04-15 20:49 | 14.56757 | -61.14103 | 1931 ft | 170 kts | 80° |
| 2026-04-15 20:49 | 14.57036 | -61.12902 | 1820 ft | 171 kts | 79° |
| 2026-04-15 20:50 | 14.57247 | -61.11740 | 1830 ft | 163 kts | 82° |
| 2026-04-15 20:50 | 14.57428 | -61.10563 | 1678 ft | 169 kts | 81° |
| 2026-04-15 20:50 | 14.57639 | -61.09434 | 1521 ft | 168 kts | 78° |